createdAt,value
2022-10-23T00:00:05.598Z,13.07
2022-10-23T00:00:27.453Z,13.15
2022-10-23T00:00:35.230Z,14.00
2022-10-23T00:00:44.150Z,13.97
2022-10-23T00:00:51.616Z,13.54
2022-10-23T00:00:59.165Z,13.73
2022-10-23T00:01:14.570Z,13.40
2022-10-23T00:01:32.292Z,13.76
2022-10-23T00:01:42.518Z,14.82
2022-10-23T00:01:51.112Z,16.91
2022-10-23T00:01:58.534Z,17.27
2022-10-23T00:02:06.131Z,17.30
2022-10-23T00:02:13.542Z,16.03
2022-10-23T00:02:21.081Z,14.73
2022-10-23T00:02:28.526Z,14.07
2022-10-23T00:02:36.085Z,13.23
2022-10-23T00:02:56.769Z,13.44
2022-10-23T00:03:05.308Z,13.39
2022-10-23T00:03:12.753Z,12.93
2022-10-23T00:03:20.144Z,12.02
2022-10-23T00:03:27.736Z,11.14
2022-10-23T00:03:35.161Z,14.50
2022-10-23T00:03:57.970Z,15.50
2022-10-23T00:04:19.436Z,14.35
2022-10-23T00:04:26.946Z,13.49
2022-10-23T00:04:34.398Z,14.10
2022-10-23T00:04:41.801Z,14.10
2022-10-23T00:04:52.657Z,14.20
2022-10-23T00:05:00.112Z,13.94
2022-10-23T00:05:10.756Z,13.47
2022-10-23T00:05:18.853Z,13.28
2022-10-23T00:05:28.128Z,13.58
2022-10-23T00:05:40.994Z,13.59
2022-10-23T00:05:48.395Z,15.10
2022-10-23T00:05:55.863Z,15.07
2022-10-23T00:06:05.652Z,14.70
2022-10-23T00:06:14.521Z,14.53
2022-10-23T00:06:22.277Z,13.81
2022-10-23T00:06:32.284Z,13.94
2022-10-23T00:06:39.807Z,14.16
2022-10-23T00:06:48.147Z,13.87
2022-10-23T00:06:55.530Z,13.83
2022-10-23T00:07:15.155Z,14.20
2022-10-23T00:07:22.592Z,14.73
2022-10-23T00:07:38.265Z,14.47
2022-10-23T00:07:45.706Z,14.42
2022-10-23T00:07:54.902Z,14.70
2022-10-23T00:08:14.659Z,13.80
2022-10-23T00:08:22.067Z,13.23
2022-10-23T00:08:29.526Z,13.44
2022-10-23T00:08:37.014Z,14.70
2022-10-23T00:08:46.466Z,15.38
2022-10-23T00:09:08.672Z,14.76
2022-10-23T00:09:18.921Z,13.80
2022-10-23T00:09:26.436Z,14.65
2022-10-23T00:09:33.862Z,15.43
2022-10-23T00:09:41.327Z,16.03
2022-10-23T00:09:48.721Z,14.07
2022-10-23T00:09:56.153Z,13.62
2022-10-23T00:10:16.320Z,13.18
2022-10-23T00:10:25.633Z,15.17
2022-10-23T00:10:33.139Z,14.90
2022-10-23T00:10:43.209Z,15.50
2022-10-23T00:10:50.608Z,15.48
2022-10-23T00:10:58.035Z,13.57
2022-10-23T00:11:09.824Z,13.42
2022-10-23T00:11:21.843Z,12.95
2022-10-23T00:11:31.043Z,12.64
2022-10-23T00:11:38.411Z,13.43
2022-10-23T00:11:50.388Z,14.23
2022-10-23T00:11:57.738Z,15.25
2022-10-23T00:12:05.278Z,14.57
2022-10-23T00:12:25.047Z,13.80
2022-10-23T00:12:32.741Z,13.07
2022-10-23T00:12:40.449Z,12.70
2022-10-23T00:12:49.128Z,11.83
2022-10-23T00:12:56.509Z,12.23
2022-10-23T00:13:16.303Z,13.96
2022-10-23T00:13:23.798Z,15.20
2022-10-23T00:13:31.223Z,16.07
2022-10-23T00:13:38.881Z,16.23
2022-10-23T00:13:47.365Z,16.35
2022-10-23T00:13:57.373Z,15.39
2022-10-23T00:14:07.159Z,12.98
2022-10-23T00:14:16.075Z,12.39
2022-10-23T00:14:25.165Z,12.11
2022-10-23T00:14:45.093Z,13.02
2022-10-23T00:14:52.567Z,13.10
2022-10-23T00:15:00.092Z,12.75
2022-10-23T00:15:08.274Z,13.33
2022-10-23T00:15:18.131Z,13.49
2022-10-23T00:15:27.668Z,14.10
2022-10-23T00:15:37.161Z,13.98
2022-10-23T00:15:57.126Z,12.52
2022-10-23T00:16:05.124Z,12.37
2022-10-23T00:16:13.368Z,12.20
2022-10-23T00:16:20.843Z,13.67
2022-10-23T00:16:29.116Z,14.53
2022-10-23T00:16:37.377Z,14.00
2022-10-23T00:16:45.242Z,13.23
2022-10-23T00:17:05.137Z,11.49
2022-10-23T00:17:12.941Z,13.50
2022-10-23T00:17:20.356Z,13.78
2022-10-23T00:17:27.703Z,13.55
2022-10-23T00:17:35.334Z,13.10
2022-10-23T00:17:55.122Z,12.85
2022-10-23T00:18:03.151Z,15.57
2022-10-23T00:18:10.601Z,15.90
2022-10-23T00:18:17.964Z,16.05
2022-10-23T00:18:25.327Z,14.30
2022-10-23T00:18:46.011Z,13.63
2022-10-23T00:18:53.434Z,14.17
2022-10-23T00:19:00.913Z,15.33
2022-10-23T00:19:08.432Z,14.43
2022-10-23T00:19:16.161Z,15.27
2022-10-23T00:19:35.901Z,13.50
2022-10-23T00:19:43.340Z,14.53
2022-10-23T00:19:50.835Z,15.77
2022-10-23T00:19:58.180Z,16.23
2022-10-23T00:20:07.463Z,15.68
2022-10-23T00:20:16.508Z,13.76
2022-10-23T00:20:36.266Z,12.15
2022-10-23T00:20:43.714Z,13.60
2022-10-23T00:20:51.102Z,14.40
2022-10-23T00:20:58.711Z,14.88
2022-10-23T00:21:08.096Z,14.33
2022-10-23T00:21:17.154Z,13.57
2022-10-23T00:21:25.188Z,12.50
2022-10-23T00:21:45.090Z,11.85
2022-10-23T00:21:52.692Z,11.80
2022-10-23T00:22:00.080Z,11.92
2022-10-23T00:22:08.877Z,11.94
2022-10-23T00:22:16.226Z,13.50
2022-10-23T00:22:36.195Z,15.26
2022-10-23T00:22:43.801Z,15.43
2022-10-23T00:22:51.316Z,15.36
2022-10-23T00:22:58.790Z,16.13
2022-10-23T00:23:06.343Z,16.04
2022-10-23T00:23:26.178Z,15.80
2022-10-23T00:23:33.751Z,15.40
2022-10-23T00:23:41.322Z,14.70
2022-10-23T00:23:49.044Z,14.07
2022-10-23T00:23:56.717Z,13.80
2022-10-23T00:24:17.104Z,15.09
2022-10-23T00:24:24.509Z,14.40
2022-10-23T00:24:31.958Z,13.88
2022-10-23T00:24:39.404Z,12.70
2022-10-23T00:24:46.908Z,12.25
2022-10-23T00:25:08.118Z,16.05
2022-10-23T00:25:16.628Z,17.94
2022-10-23T00:25:24.106Z,17.03
2022-10-23T00:25:32.731Z,16.76
2022-10-23T00:25:40.153Z,16.07
2022-10-23T00:25:47.557Z,16.47
2022-10-23T00:25:55.027Z,15.33
2022-10-23T00:26:16.452Z,13.40
2022-10-23T00:26:24.495Z,13.20
2022-10-23T00:26:32.105Z,12.97
2022-10-23T00:26:40.817Z,14.07
2022-10-23T00:26:51.149Z,15.37
2022-10-23T00:26:58.528Z,15.29
2022-10-23T00:27:05.960Z,15.50
2022-10-23T00:27:25.792Z,14.54
2022-10-23T00:27:34.199Z,15.04
2022-10-23T00:27:41.840Z,14.61
2022-10-23T00:27:49.562Z,14.98
2022-10-23T00:27:57.052Z,14.43
2022-10-23T00:28:16.957Z,15.77
2022-10-23T00:28:25.383Z,15.47
2022-10-23T00:28:33.307Z,15.94
2022-10-23T00:28:40.818Z,15.33
2022-10-23T00:28:51.344Z,15.18
2022-10-23T00:28:58.900Z,14.62
2022-10-23T00:29:06.748Z,13.58
2022-10-23T00:29:28.387Z,13.56
2022-10-23T00:29:35.889Z,13.99
2022-10-23T00:29:45.586Z,14.18
2022-10-23T00:29:53.162Z,14.90
2022-10-23T00:30:01.186Z,15.42
2022-10-23T00:30:09.093Z,15.73
2022-10-23T00:30:16.576Z,16.08
2022-10-23T00:30:36.529Z,15.77
2022-10-23T00:30:43.899Z,15.55
2022-10-23T00:30:51.330Z,15.62
2022-10-23T00:31:01.420Z,15.23
2022-10-23T00:31:08.853Z,15.40
2022-10-23T00:31:16.727Z,15.68
2022-10-23T00:31:25.561Z,15.22
2022-10-23T00:31:45.657Z,15.35
2022-10-23T00:31:52.981Z,15.20
2022-10-23T00:32:00.419Z,14.78
2022-10-23T00:32:07.897Z,14.50
2022-10-23T00:32:15.368Z,15.04
2022-10-23T00:32:35.308Z,16.27
2022-10-23T00:32:42.720Z,15.97
2022-10-23T00:32:50.118Z,15.70
2022-10-23T00:32:57.575Z,15.33
2022-10-23T00:33:04.955Z,14.66
2022-10-23T00:33:24.821Z,14.64
2022-10-23T00:33:33.343Z,15.30
2022-10-23T00:33:41.594Z,14.47
2022-10-23T00:33:49.585Z,13.98
2022-10-23T00:33:56.996Z,13.27
2022-10-23T00:34:08.568Z,13.27
2022-10-23T00:34:16.365Z,15.36
2022-10-23T00:34:37.085Z,18.01
2022-10-23T00:34:44.550Z,17.15
2022-10-23T00:34:52.767Z,14.72
2022-10-23T00:35:00.588Z,14.72
2022-10-23T00:35:08.382Z,16.57
2022-10-23T00:35:16.022Z,16.07
2022-10-23T00:35:35.695Z,14.98
2022-10-23T00:35:43.511Z,14.60
2022-10-23T00:35:50.965Z,15.82
2022-10-23T00:35:58.470Z,16.35
2022-10-23T00:36:09.399Z,16.14
2022-10-23T00:36:19.706Z,14.97
2022-10-23T00:36:27.592Z,15.80
2022-10-23T00:36:35.502Z,16.22
2022-10-23T00:36:55.192Z,16.04
2022-10-23T00:37:02.824Z,15.38
2022-10-23T00:37:10.341Z,14.38
2022-10-23T00:37:17.772Z,13.32
2022-10-23T00:37:25.216Z,13.60
2022-10-23T00:37:45.406Z,15.68
2022-10-23T00:37:53.060Z,15.72
2022-10-23T00:38:00.522Z,16.47
2022-10-23T00:38:09.032Z,15.48
2022-10-23T00:38:16.592Z,15.63
2022-10-23T00:38:37.125Z,15.65
2022-10-23T00:38:44.955Z,16.80
2022-10-23T00:38:52.938Z,16.03
2022-10-23T00:39:00.341Z,16.22
2022-10-23T00:39:07.791Z,16.38
2022-10-23T00:39:15.143Z,14.76
2022-10-23T00:39:35.014Z,14.19
2022-10-23T00:39:42.539Z,13.80
2022-10-23T00:39:50.040Z,14.20
2022-10-23T00:39:57.481Z,14.50
2022-10-23T00:40:05.627Z,14.18
2022-10-23T00:40:25.691Z,16.85
2022-10-23T00:40:33.274Z,16.40
2022-10-23T00:40:42.526Z,16.42
2022-10-23T00:41:03.134Z,15.52
2022-10-23T00:41:20.270Z,15.87
2022-10-23T00:41:29.809Z,15.64
2022-10-23T00:41:37.337Z,16.40
2022-10-23T00:41:44.912Z,16.92
2022-10-23T00:41:52.522Z,17.72
2022-10-23T00:42:00.541Z,16.97
2022-10-23T00:42:08.072Z,15.90
2022-10-23T00:42:21.718Z,16.37
2022-10-23T00:42:29.212Z,14.95
2022-10-23T00:42:37.083Z,14.75
2022-10-23T00:42:56.805Z,15.19
2022-10-23T00:43:04.848Z,14.58
2022-10-23T00:43:24.034Z,14.83
2022-10-23T00:43:32.909Z,14.00
2022-10-23T00:43:57.621Z,14.04
2022-10-23T00:44:07.367Z,13.04
2022-10-23T00:44:20.746Z,13.93
2022-10-23T00:44:30.771Z,13.81
2022-10-23T00:44:38.174Z,15.69
2022-10-23T00:44:45.619Z,16.27
2022-10-23T00:44:54.735Z,17.14
2022-10-23T00:45:25.910Z,16.97
2022-10-23T00:45:34.202Z,15.70
2022-10-23T00:45:41.709Z,15.33
2022-10-23T00:45:49.363Z,15.80
2022-10-23T00:45:57.735Z,15.67
2022-10-23T00:46:05.325Z,14.52
2022-10-23T00:46:12.846Z,14.93
2022-10-23T00:46:20.320Z,14.48
2022-10-23T00:46:27.955Z,13.78
2022-10-23T00:46:38.102Z,13.45
2022-10-23T00:46:46.497Z,13.76
2022-10-23T00:46:53.979Z,14.40
2022-10-23T00:47:01.463Z,14.35
2022-10-23T00:47:09.974Z,14.26
2022-10-23T00:47:17.888Z,14.47
2022-10-23T00:47:25.408Z,16.30
2022-10-23T00:47:33.025Z,18.33
2022-10-23T00:47:40.845Z,19.35
2022-10-23T00:47:49.102Z,20.10
2022-10-23T00:47:56.456Z,18.22
2022-10-23T00:48:04.580Z,17.18
2022-10-23T00:48:12.980Z,16.00
2022-10-23T00:48:20.661Z,15.62
2022-10-23T00:48:29.254Z,15.38
2022-10-23T00:48:37.033Z,15.17
2022-10-23T00:48:57.536Z,16.55
2022-10-23T00:49:06.509Z,16.62
2022-10-23T00:49:14.963Z,14.87
2022-10-23T00:49:23.291Z,14.37
2022-10-23T00:49:32.495Z,12.90
2022-10-23T00:49:42.876Z,13.37
2022-10-23T00:49:50.492Z,14.51
2022-10-23T00:49:59.087Z,15.30
2022-10-23T00:50:07.377Z,16.36
2022-10-23T00:50:30.142Z,17.41
2022-10-23T00:50:38.696Z,17.53
2022-10-23T00:50:48.013Z,19.10
2022-10-23T00:50:56.125Z,21.42
2022-10-23T00:51:05.076Z,22.37
2022-10-23T00:51:12.443Z,21.47
2022-10-23T00:51:20.249Z,20.02
2022-10-23T00:51:33.780Z,18.10
2022-10-23T00:51:45.023Z,17.75
2022-10-23T00:51:57.353Z,17.52
2022-10-23T00:52:08.281Z,18.49
2022-10-23T00:52:15.958Z,17.72
2022-10-23T00:52:23.449Z,15.67
2022-10-23T00:52:31.394Z,15.38
2022-10-23T00:52:44.446Z,15.93
2022-10-23T00:52:54.555Z,17.50
2022-10-23T00:53:04.476Z,17.35
2022-10-23T00:53:14.451Z,15.72
2022-10-23T00:53:23.079Z,15.00
2022-10-23T00:53:30.937Z,14.74
2022-10-23T00:53:39.575Z,15.27
2022-10-23T00:54:01.073Z,16.62
2022-10-23T00:54:24.402Z,15.90
2022-10-23T00:54:38.843Z,15.98
2022-10-23T00:54:46.652Z,14.90
2022-10-23T00:54:54.828Z,14.40
2022-10-23T00:55:02.890Z,13.95
2022-10-23T00:55:10.977Z,14.17
2022-10-23T00:55:20.775Z,13.93
2022-10-23T00:55:29.595Z,15.13
2022-10-23T00:55:38.660Z,14.72
2022-10-23T00:55:49.209Z,13.82
2022-10-23T00:55:57.952Z,13.95
2022-10-23T00:56:05.920Z,14.69
2022-10-23T00:56:13.380Z,14.73
2022-10-23T00:56:20.825Z,14.48
2022-10-23T00:56:28.379Z,13.28
2022-10-23T00:56:39.576Z,13.50
2022-10-23T00:56:47.211Z,13.24
2022-10-23T00:56:58.497Z,13.58
2022-10-23T00:57:08.396Z,12.57
2022-10-23T00:57:16.629Z,12.64
2022-10-23T00:57:24.457Z,12.80
2022-10-23T00:57:32.591Z,13.50
2022-10-23T00:57:43.607Z,15.57
2022-10-23T00:57:52.678Z,15.76
2022-10-23T00:58:00.824Z,14.66
2022-10-23T00:58:08.276Z,13.90
2022-10-23T00:58:18.037Z,14.23
2022-10-23T00:58:26.227Z,16.13
2022-10-23T00:58:46.138Z,16.69
2022-10-23T00:58:53.664Z,14.68
2022-10-23T00:59:01.186Z,13.02
2022-10-23T00:59:08.950Z,12.34
2022-10-23T00:59:16.452Z,11.82
2022-10-23T00:59:36.550Z,13.24
2022-10-23T00:59:44.313Z,13.90
2022-10-23T00:59:51.881Z,13.92
2022-10-23T00:59:59.457Z,13.62
2022-10-23T01:00:07.550Z,15.40
2022-10-23T01:00:22.141Z,14.33
2022-10-23T01:00:44.534Z,14.82
2022-10-23T01:00:54.983Z,14.32
2022-10-23T01:01:02.742Z,14.70
2022-10-23T01:01:20.487Z,14.92
2022-10-23T01:01:28.212Z,14.36
2022-10-23T01:01:36.059Z,13.94
2022-10-23T01:01:43.980Z,13.42
2022-10-23T01:01:52.247Z,14.42
2022-10-23T01:02:00.791Z,15.27
2022-10-23T01:02:08.584Z,16.31
2022-10-23T01:02:16.203Z,16.70
2022-10-23T01:02:23.882Z,17.03
2022-10-23T01:02:31.439Z,16.33
2022-10-23T01:02:39.302Z,15.17
2022-10-23T01:02:47.335Z,15.34
2022-10-23T01:02:56.961Z,15.43
2022-10-23T01:03:19.310Z,15.74
2022-10-23T01:03:29.119Z,13.43
2022-10-23T01:03:38.070Z,13.09
2022-10-23T01:03:46.070Z,13.80
2022-10-23T01:03:53.674Z,13.78
2022-10-23T01:04:03.496Z,15.60
2022-10-23T01:04:11.859Z,16.63
2022-10-23T01:04:22.943Z,16.26
2022-10-23T01:04:31.234Z,15.63
2022-10-23T01:04:38.941Z,13.57
2022-10-23T01:04:46.708Z,14.08
2022-10-23T01:05:09.133Z,13.91
2022-10-23T01:05:17.153Z,12.98
2022-10-23T01:05:30.778Z,12.77
2022-10-23T01:06:16.002Z,12.86
2022-10-23T01:06:43.172Z,14.35
2022-10-23T01:06:56.041Z,13.91
2022-10-23T01:07:20.455Z,14.02
2022-10-23T01:07:48.099Z,14.71
2022-10-23T01:08:02.596Z,14.52
2022-10-23T01:08:18.577Z,14.36
2022-10-23T01:08:38.518Z,12.68
2022-10-23T01:09:16.097Z,12.06
2022-10-23T01:09:43.085Z,14.81
2022-10-23T01:10:05.481Z,15.45
2022-10-23T01:10:35.471Z,13.98
2022-10-23T01:10:56.836Z,14.73
2022-10-23T01:11:25.113Z,13.65
2022-10-23T01:12:01.422Z,14.98
2022-10-23T01:12:17.101Z,14.75
2022-10-23T01:12:35.426Z,15.19
2022-10-23T01:13:02.653Z,15.94
2022-10-23T01:13:19.397Z,14.98
2022-10-23T01:13:43.822Z,14.21
2022-10-23T01:14:06.277Z,13.91
2022-10-23T01:14:36.274Z,13.95
2022-10-23T01:14:50.223Z,14.79
2022-10-23T01:15:03.643Z,15.32
2022-10-23T01:15:19.665Z,14.68
2022-10-23T01:15:34.240Z,14.68
2022-10-23T01:15:53.921Z,15.64
2022-10-23T01:16:18.954Z,15.24
2022-10-23T01:16:37.903Z,12.91
2022-10-23T01:17:09.435Z,13.07
2022-10-23T01:17:39.673Z,15.52
2022-10-23T01:18:08.050Z,16.04
2022-10-23T01:18:30.345Z,14.90
2022-10-23T01:18:58.379Z,13.00
2022-10-23T01:19:36.019Z,15.00
2022-10-23T01:20:04.304Z,13.84
2022-10-23T01:20:29.252Z,13.90
2022-10-23T01:20:43.758Z,14.65
2022-10-23T01:21:20.791Z,13.44
2022-10-23T01:21:42.854Z,13.27
2022-10-23T01:22:04.142Z,15.43
2022-10-23T01:22:48.336Z,16.25
2022-10-23T01:23:23.660Z,13.32
2022-10-23T01:23:37.021Z,11.99
2022-10-23T01:23:52.697Z,11.90
2022-10-23T01:24:14.960Z,12.30
2022-10-23T01:24:52.844Z,13.23
2022-10-23T01:25:05.921Z,13.16
2022-10-23T01:25:53.465Z,13.98
2022-10-23T01:26:25.493Z,12.93
2022-10-23T01:27:02.718Z,12.45
2022-10-23T01:27:41.524Z,13.95
2022-10-23T01:27:53.495Z,17.23
2022-10-23T01:28:05.060Z,15.59
2022-10-23T01:28:24.254Z,15.17
2022-10-23T01:28:40.230Z,13.32
2022-10-23T01:28:53.617Z,14.23
2022-10-23T01:29:26.108Z,12.91
2022-10-23T01:29:39.959Z,14.02
2022-10-23T01:29:59.435Z,16.24
2022-10-23T01:30:16.590Z,14.88
2022-10-23T01:30:25.969Z,14.29
2022-10-23T01:30:35.693Z,14.53
2022-10-23T01:30:45.011Z,14.53
2022-10-23T01:30:56.731Z,16.29
2022-10-23T01:31:14.501Z,16.83
2022-10-23T01:31:55.484Z,18.06
2022-10-23T01:32:33.962Z,16.49
2022-10-23T01:32:41.924Z,13.34
2022-10-23T01:32:58.614Z,13.80
2022-10-23T01:33:16.094Z,13.05
2022-10-23T01:33:38.761Z,12.31
2022-10-23T01:33:51.775Z,12.68
2022-10-23T01:34:13.227Z,12.35
2022-10-23T01:34:32.081Z,11.51
2022-10-23T01:34:51.109Z,12.41
2022-10-23T01:35:12.261Z,13.36
2022-10-23T01:35:25.582Z,13.34
2022-10-23T01:35:43.832Z,13.27
2022-10-23T01:35:57.327Z,13.74
2022-10-23T01:36:09.008Z,13.27
2022-10-23T01:36:21.001Z,13.64
2022-10-23T01:36:34.438Z,14.24
2022-10-23T01:36:46.706Z,13.10
2022-10-23T01:36:55.416Z,12.48
2022-10-23T01:37:05.618Z,12.17
2022-10-23T01:37:16.266Z,13.19
2022-10-23T01:37:34.839Z,13.51
2022-10-23T01:37:48.122Z,13.24
2022-10-23T01:37:59.280Z,13.24
2022-10-23T01:38:21.691Z,14.20
2022-10-23T01:38:45.124Z,14.73
2022-10-23T01:39:12.499Z,15.96
2022-10-23T01:39:32.914Z,15.52
2022-10-23T01:39:49.853Z,13.91
2022-10-23T01:40:02.561Z,14.30
2022-10-23T01:40:34.440Z,13.64
2022-10-23T01:40:58.410Z,13.24
2022-10-23T01:41:20.985Z,11.80
2022-10-23T01:41:44.279Z,12.69
2022-10-23T01:42:00.065Z,14.86
2022-10-23T01:42:17.187Z,14.49
2022-10-23T01:42:35.164Z,12.94
2022-10-23T01:42:50.582Z,13.56
2022-10-23T01:43:07.455Z,13.30
2022-10-23T01:43:39.077Z,12.04
2022-10-23T01:44:16.470Z,12.49
2022-10-23T01:44:29.746Z,13.60
2022-10-23T01:44:46.979Z,12.69
2022-10-23T01:45:13.322Z,12.36
2022-10-23T01:45:34.535Z,13.43
2022-10-23T01:45:48.011Z,16.04
2022-10-23T01:46:06.215Z,16.63
2022-10-23T01:46:18.764Z,14.29
2022-10-23T01:46:28.714Z,14.33
2022-10-23T01:46:37.694Z,15.87
2022-10-23T01:46:50.592Z,15.90
2022-10-23T01:46:58.845Z,14.23
2022-10-23T01:47:11.520Z,13.08
2022-10-23T01:47:35.583Z,12.70
2022-10-23T01:47:46.446Z,12.15
2022-10-23T01:47:57.963Z,12.86
2022-10-23T01:48:07.825Z,13.03
2022-10-23T01:48:19.795Z,12.98
2022-10-23T01:48:30.400Z,13.71
2022-10-23T01:48:38.490Z,14.01
2022-10-23T01:48:51.699Z,13.10
2022-10-23T01:49:01.302Z,12.20
2022-10-23T01:49:12.194Z,12.01
2022-10-23T01:49:21.955Z,13.00
2022-10-23T01:49:34.991Z,13.48
2022-10-23T01:49:43.985Z,14.29
2022-10-23T01:49:52.799Z,14.19
2022-10-23T01:50:01.456Z,13.52
2022-10-23T01:50:13.365Z,12.97
2022-10-23T01:50:25.830Z,12.93
2022-10-23T01:50:42.670Z,13.01
2022-10-23T01:50:51.295Z,13.47
2022-10-23T01:51:06.530Z,14.29
2022-10-23T01:51:17.046Z,15.29
2022-10-23T01:51:27.609Z,16.17
2022-10-23T01:51:41.752Z,14.60
2022-10-23T01:51:56.554Z,13.02
2022-10-23T01:52:08.927Z,12.85
2022-10-23T01:52:18.436Z,13.38
2022-10-23T01:52:28.670Z,12.94
2022-10-23T01:52:37.377Z,12.20
2022-10-23T01:52:46.167Z,13.11
2022-10-23T01:52:53.664Z,13.05
2022-10-23T01:53:01.241Z,14.33
2022-10-23T01:53:09.805Z,15.33
2022-10-23T01:53:19.345Z,14.95
2022-10-23T01:53:31.329Z,15.23
2022-10-23T01:53:42.391Z,13.55
2022-10-23T01:53:58.505Z,12.98
2022-10-23T01:54:10.608Z,13.46
2022-10-23T01:54:22.764Z,14.24
2022-10-23T01:54:34.274Z,15.10
2022-10-23T01:54:44.350Z,14.41
2022-10-23T01:54:53.637Z,13.52
2022-10-23T01:55:02.013Z,12.30
2022-10-23T01:55:14.564Z,12.91
2022-10-23T01:55:24.346Z,13.35
2022-10-23T01:55:33.255Z,14.06
2022-10-23T01:55:44.554Z,14.57
2022-10-23T01:55:59.917Z,13.93
2022-10-23T01:56:11.760Z,13.71
2022-10-23T01:56:23.218Z,13.34
2022-10-23T01:56:35.317Z,14.18
2022-10-23T01:56:46.838Z,14.86
2022-10-23T01:56:55.922Z,14.81
2022-10-23T01:57:11.351Z,14.77
2022-10-23T01:57:21.136Z,14.81
2022-10-23T01:57:32.577Z,14.01
2022-10-23T01:57:42.780Z,13.68
2022-10-23T01:57:51.676Z,13.18
2022-10-23T01:58:00.992Z,13.60
2022-10-23T01:58:19.338Z,13.29
2022-10-23T01:58:28.485Z,12.57
2022-10-23T01:58:37.746Z,12.89
2022-10-23T01:58:48.845Z,13.00
2022-10-23T01:58:58.962Z,13.63
2022-10-23T01:59:14.942Z,13.36
2022-10-23T01:59:36.974Z,13.44
2022-10-23T01:59:51.389Z,13.20
2022-10-23T02:00:06.765Z,12.45
2022-10-23T02:00:20.063Z,13.02
2022-10-23T02:00:34.809Z,14.68
2022-10-23T02:00:44.902Z,14.99
2022-10-23T02:00:54.595Z,15.44
2022-10-23T02:01:06.270Z,15.01
2022-10-23T02:01:27.956Z,13.98
2022-10-23T02:01:40.475Z,13.10
2022-10-23T02:01:51.227Z,13.35
2022-10-23T02:02:00.859Z,12.60
2022-10-23T02:02:12.403Z,11.80
2022-10-23T02:02:25.038Z,11.98
2022-10-23T02:02:36.510Z,13.10
2022-10-23T02:02:45.398Z,14.38
2022-10-23T02:02:54.640Z,15.10
2022-10-23T02:03:08.283Z,14.79
2022-10-23T02:03:18.946Z,14.07
2022-10-23T02:03:29.437Z,14.80
2022-10-23T02:03:39.555Z,15.23
2022-10-23T02:03:48.710Z,13.60
2022-10-23T02:04:15.202Z,13.49
2022-10-23T02:04:28.337Z,14.14
2022-10-23T02:04:58.501Z,14.74
2022-10-23T02:05:14.711Z,13.94
2022-10-23T02:05:24.357Z,12.85
2022-10-23T02:05:32.286Z,13.34
2022-10-23T02:05:43.033Z,13.17
2022-10-23T02:05:50.601Z,13.00
2022-10-23T02:05:58.495Z,13.45
2022-10-23T02:06:06.136Z,13.25
2022-10-23T02:06:13.736Z,14.26
2022-10-23T02:06:21.153Z,14.68
2022-10-23T02:06:29.187Z,14.70
2022-10-23T02:06:36.747Z,15.02
2022-10-23T02:06:44.249Z,15.00
2022-10-23T02:06:54.813Z,15.67
2022-10-23T02:07:02.458Z,15.44
2022-10-23T02:07:09.956Z,14.92
2022-10-23T02:07:17.570Z,14.04
2022-10-23T02:07:25.196Z,13.33
2022-10-23T02:07:32.828Z,14.10
2022-10-23T02:07:40.677Z,14.15
2022-10-23T02:07:49.387Z,13.40
2022-10-23T02:07:57.622Z,13.03
2022-10-23T02:08:05.556Z,13.20
2022-10-23T02:08:13.532Z,13.73
2022-10-23T02:08:22.989Z,14.70
2022-10-23T02:08:31.976Z,14.30
2022-10-23T02:08:40.078Z,13.50
2022-10-23T02:08:47.802Z,13.38
2022-10-23T02:08:55.420Z,14.13
2022-10-23T02:09:16.094Z,14.61
2022-10-23T02:09:23.871Z,13.03
2022-10-23T02:09:32.671Z,12.87
2022-10-23T02:09:40.565Z,12.57
2022-10-23T02:09:48.170Z,14.08
2022-10-23T02:09:56.141Z,13.02
2022-10-23T02:10:06.655Z,12.82
2022-10-23T02:10:15.383Z,13.04
2022-10-23T02:10:28.869Z,14.03
2022-10-23T02:11:03.629Z,15.29
2022-10-23T02:11:16.225Z,13.68
2022-10-23T02:11:24.063Z,13.05
2022-10-23T02:11:35.456Z,13.58
2022-10-23T02:12:10.505Z,13.88
2022-10-23T02:12:48.030Z,14.10
2022-10-23T02:13:21.683Z,13.21
2022-10-23T02:13:56.041Z,12.31
2022-10-23T02:14:32.690Z,13.70
2022-10-23T02:14:49.159Z,15.06
2022-10-23T02:15:12.743Z,13.46
2022-10-23T02:15:33.809Z,13.50
2022-10-23T02:15:50.278Z,13.96
2022-10-23T02:16:12.789Z,15.24
2022-10-23T02:16:31.277Z,13.46
2022-10-23T02:16:51.736Z,11.66
2022-10-23T02:17:17.014Z,12.32
2022-10-23T02:17:49.991Z,12.31
2022-10-23T02:18:14.239Z,12.84
2022-10-23T02:18:21.580Z,11.79
2022-10-23T02:18:38.386Z,13.42
2022-10-23T02:19:09.244Z,15.50
2022-10-23T02:19:40.706Z,14.48
2022-10-23T02:20:07.647Z,14.71
2022-10-23T02:20:24.274Z,14.60
2022-10-23T02:20:45.700Z,13.23
2022-10-23T02:20:59.273Z,13.52
2022-10-23T02:21:15.637Z,13.69
2022-10-23T02:21:34.593Z,12.68
2022-10-23T02:22:06.887Z,12.18
2022-10-23T02:22:40.986Z,13.16
2022-10-23T02:23:03.163Z,12.23
2022-10-23T02:23:22.720Z,11.77
2022-10-23T02:23:39.317Z,12.50
2022-10-23T02:24:09.678Z,13.35
2022-10-23T02:24:31.609Z,13.10
2022-10-23T02:24:46.731Z,13.31
2022-10-23T02:25:00.090Z,14.21
2022-10-23T02:25:17.087Z,12.98
2022-10-23T02:26:00.039Z,11.99
2022-10-23T02:26:09.695Z,13.13
2022-10-23T02:26:23.044Z,13.77
2022-10-23T02:26:35.116Z,13.48
2022-10-23T02:26:55.854Z,13.70
2022-10-23T02:27:07.279Z,13.50
2022-10-23T02:27:20.907Z,12.00
2022-10-23T02:27:37.765Z,11.40
2022-10-23T02:27:54.750Z,13.10
2022-10-23T02:28:10.979Z,14.84
2022-10-23T02:28:33.764Z,14.68
2022-10-23T02:28:48.916Z,13.60
2022-10-23T02:29:33.075Z,13.21
2022-10-23T02:30:02.081Z,13.14
2022-10-23T02:30:13.303Z,12.49
2022-10-23T02:30:21.912Z,12.57
2022-10-23T02:30:48.607Z,12.29
2022-10-23T02:30:59.412Z,12.12
2022-10-23T02:31:10.643Z,12.12
2022-10-23T02:31:22.276Z,12.99
2022-10-23T02:31:29.860Z,13.70
2022-10-23T02:31:37.442Z,13.18
2022-10-23T02:31:45.159Z,13.10
2022-10-23T02:31:52.586Z,13.43
2022-10-23T02:32:01.024Z,13.47
2022-10-23T02:32:10.455Z,14.67
2022-10-23T02:32:20.566Z,15.43
2022-10-23T02:32:30.229Z,15.78
2022-10-23T02:32:42.604Z,14.41
2022-10-23T02:32:55.145Z,12.52
2022-10-23T02:33:03.845Z,12.74
2022-10-23T02:33:13.515Z,13.63
2022-10-23T02:33:22.181Z,12.74
2022-10-23T02:33:31.962Z,12.58
2022-10-23T02:33:39.947Z,12.83
2022-10-23T02:33:48.372Z,12.87
2022-10-23T02:33:55.787Z,12.83
2022-10-23T02:34:03.858Z,12.90
2022-10-23T02:34:11.425Z,12.90
2022-10-23T02:34:19.423Z,13.18
2022-10-23T02:34:27.076Z,13.43
2022-10-23T02:34:35.410Z,13.27
2022-10-23T02:34:42.947Z,12.63
2022-10-23T02:34:51.750Z,12.49
2022-10-23T02:34:59.553Z,12.10
2022-10-23T02:35:08.007Z,11.67
2022-10-23T02:35:16.468Z,12.83
2022-10-23T02:35:25.520Z,12.80
2022-10-23T02:35:42.547Z,13.09
2022-10-23T02:36:02.810Z,13.04
2022-10-23T02:36:10.362Z,12.88
2022-10-23T02:36:19.579Z,12.97
2022-10-23T02:36:27.093Z,13.61
2022-10-23T02:36:35.087Z,13.33
2022-10-23T02:36:43.744Z,16.10
2022-10-23T02:36:51.758Z,16.43
2022-10-23T02:37:01.324Z,17.07
2022-10-23T02:37:09.245Z,14.97
2022-10-23T02:37:16.871Z,13.40
2022-10-23T02:37:25.742Z,12.40
2022-10-23T02:37:33.742Z,12.91
2022-10-23T02:37:43.892Z,13.67
2022-10-23T02:37:59.949Z,13.68
2022-10-23T02:38:29.982Z,12.14
2022-10-23T02:38:43.025Z,12.10
2022-10-23T02:38:50.512Z,13.69
2022-10-23T02:38:58.342Z,15.13
2022-10-23T02:39:06.247Z,15.28
2022-10-23T02:39:13.740Z,16.17
2022-10-23T02:39:24.877Z,16.62
2022-10-23T02:39:32.332Z,15.70
2022-10-23T02:39:40.653Z,14.60
2022-10-23T02:39:49.405Z,13.73
2022-10-23T02:39:58.174Z,12.80
2022-10-23T02:40:09.597Z,11.98
2022-10-23T02:40:26.863Z,12.91
2022-10-23T02:40:42.101Z,14.55
2022-10-23T02:40:50.146Z,16.02
2022-10-23T02:41:36.040Z,16.28
2022-10-23T02:41:49.357Z,14.38
2022-10-23T02:42:22.257Z,14.15
2022-10-23T02:42:39.568Z,14.57
2022-10-23T02:43:01.852Z,15.90
2022-10-23T02:43:21.256Z,14.02
2022-10-23T02:43:37.729Z,14.91
2022-10-23T02:44:17.143Z,15.52
2022-10-23T02:44:47.874Z,15.56
2022-10-23T02:45:20.166Z,14.51
2022-10-23T02:45:35.821Z,13.77
2022-10-23T02:46:09.473Z,14.54
2022-10-23T02:46:25.798Z,13.98
2022-10-23T02:46:54.589Z,13.66
2022-10-23T02:47:30.899Z,14.27
2022-10-23T02:48:15.627Z,15.85
2022-10-23T02:48:35.147Z,14.82
2022-10-23T02:49:11.497Z,15.52
2022-10-23T02:49:46.325Z,15.15
2022-10-23T02:50:06.237Z,14.61
2022-10-23T02:50:59.369Z,14.51